sensor_id;sensor_type;location;lat;lon;timestamp;P1;durP1;ratioP1;P2;durP2;ratioP2
76667;SDS011;65585;51.166;16.922;2024-01-30T00:02:08;33.72;;;12.65;;
76667;SDS011;65585;51.166;16.922;2024-01-30T00:04:33;24.17;;;11.88;;
76667;SDS011;65585;51.166;16.922;2024-01-30T00:06:59;21.95;;;11.05;;
76667;SDS011;65585;51.166;16.922;2024-01-30T00:09:25;31.45;;;11.48;;
76667;SDS011;65585;51.166;16.922;2024-01-30T00:11:51;20.52;;;11.23;;
76667;SDS011;65585;51.166;16.922;2024-01-30T00:14:17;21.25;;;11.30;;
76667;SDS011;65585;51.166;16.922;2024-01-30T00:16:43;24.35;;;10.88;;
76667;SDS011;65585;51.166;16.922;2024-01-30T00:19:09;23.42;;;11.18;;
76667;SDS011;65585;51.166;16.922;2024-01-30T00:21:35;24.75;;;11.10;;
76667;SDS011;65585;51.166;16.922;2024-01-30T00:24:01;22.40;;;11.68;;
76667;SDS011;65585;51.166;16.922;2024-01-30T00:26:27;23.10;;;10.75;;
76667;SDS011;65585;51.166;16.922;2024-01-30T00:28:53;20.42;;;10.60;;
76667;SDS011;65585;51.166;16.922;2024-01-30T00:31:19;21.80;;;11.70;;
76667;SDS011;65585;51.166;16.922;2024-01-30T00:33:45;27.75;;;12.50;;
76667;SDS011;65585;51.166;16.922;2024-01-30T00:36:12;21.85;;;11.52;;
76667;SDS011;65585;51.166;16.922;2024-01-30T00:38:38;26.17;;;13.07;;
76667;SDS011;65585;51.166;16.922;2024-01-30T00:41:07;26.38;;;12.38;;
76667;SDS011;65585;51.166;16.922;2024-01-30T00:43:33;27.15;;;11.50;;
76667;SDS011;65585;51.166;16.922;2024-01-30T00:45:59;25.40;;;11.75;;
76667;SDS011;65585;51.166;16.922;2024-01-30T00:48:25;20.33;;;11.05;;
76667;SDS011;65585;51.166;16.922;2024-01-30T00:50:51;22.20;;;11.63;;
76667;SDS011;65585;51.166;16.922;2024-01-30T00:53:17;19.15;;;10.15;;
76667;SDS011;65585;51.166;16.922;2024-01-30T00:55:43;22.65;;;11.55;;
76667;SDS011;65585;51.166;16.922;2024-01-30T00:58:09;19.77;;;10.25;;
76667;SDS011;65585;51.166;16.922;2024-01-30T01:00:35;26.65;;;11.20;;
76667;SDS011;65585;51.166;16.922;2024-01-30T01:03:01;16.52;;;9.73;;
76667;SDS011;65585;51.166;16.922;2024-01-30T01:05:28;19.38;;;9.43;;
76667;SDS011;65585;51.166;16.922;2024-01-30T01:07:54;23.08;;;11.20;;
76667;SDS011;65585;51.166;16.922;2024-01-30T01:10:20;19.63;;;9.20;;
76667;SDS011;65585;51.166;16.922;2024-01-30T01:12:47;26.00;;;10.63;;
76667;SDS011;65585;51.166;16.922;2024-01-30T01:15:14;17.23;;;9.25;;
76667;SDS011;65585;51.166;16.922;2024-01-30T01:17:40;25.02;;;10.15;;
76667;SDS011;65585;51.166;16.922;2024-01-30T01:20:06;22.48;;;10.65;;
76667;SDS011;65585;51.166;16.922;2024-01-30T01:22:33;24.17;;;11.20;;
76667;SDS011;65585;51.166;16.922;2024-01-30T01:24:59;26.55;;;10.63;;
76667;SDS011;65585;51.166;16.922;2024-01-30T01:27:26;22.17;;;9.57;;
76667;SDS011;65585;51.166;16.922;2024-01-30T01:29:52;22.73;;;10.02;;
76667;SDS011;65585;51.166;16.922;2024-01-30T01:32:18;21.45;;;9.93;;
76667;SDS011;65585;51.166;16.922;2024-01-30T01:34:44;22.33;;;10.50;;
76667;SDS011;65585;51.166;16.922;2024-01-30T01:37:10;16.48;;;8.85;;
76667;SDS011;65585;51.166;16.922;2024-01-30T01:39:36;24.17;;;11.75;;
76667;SDS011;65585;51.166;16.922;2024-01-30T01:42:02;17.60;;;10.25;;
76667;SDS011;65585;51.166;16.922;2024-01-30T01:44:29;17.83;;;10.27;;
76667;SDS011;65585;51.166;16.922;2024-01-30T01:46:55;24.35;;;11.77;;
76667;SDS011;65585;51.166;16.922;2024-01-30T01:49:22;23.63;;;11.32;;
76667;SDS011;65585;51.166;16.922;2024-01-30T01:51:50;19.30;;;10.18;;
76667;SDS011;65585;51.166;16.922;2024-01-30T01:54:17;20.92;;;10.43;;
76667;SDS011;65585;51.166;16.922;2024-01-30T01:56:43;21.50;;;9.70;;
76667;SDS011;65585;51.166;16.922;2024-01-30T01:59:09;21.88;;;10.68;;
76667;SDS011;65585;51.166;16.922;2024-01-30T02:01:36;24.10;;;9.77;;
76667;SDS011;65585;51.166;16.922;2024-01-30T02:04:02;18.90;;;10.43;;
76667;SDS011;65585;51.166;16.922;2024-01-30T02:06:28;22.67;;;11.20;;
76667;SDS011;65585;51.166;16.922;2024-01-30T02:08:54;22.15;;;10.05;;
76667;SDS011;65585;51.166;16.922;2024-01-30T02:11:22;24.88;;;10.10;;
76667;SDS011;65585;51.166;16.922;2024-01-30T02:13:48;21.08;;;10.48;;
76667;SDS011;65585;51.166;16.922;2024-01-30T02:16:15;18.55;;;10.13;;
76667;SDS011;65585;51.166;16.922;2024-01-30T02:18:45;20.77;;;10.68;;
76667;SDS011;65585;51.166;16.922;2024-01-30T02:21:16;24.70;;;9.93;;
76667;SDS011;65585;51.166;16.922;2024-01-30T02:23:44;17.95;;;9.90;;
76667;SDS011;65585;51.166;16.922;2024-01-30T02:26:11;20.50;;;11.05;;
76667;SDS011;65585;51.166;16.922;2024-01-30T02:28:37;19.27;;;9.82;;
76667;SDS011;65585;51.166;16.922;2024-01-30T02:31:04;23.48;;;11.18;;
76667;SDS011;65585;51.166;16.922;2024-01-30T02:33:30;23.70;;;10.68;;
76667;SDS011;65585;51.166;16.922;2024-01-30T02:35:56;20.48;;;10.75;;
76667;SDS011;65585;51.166;16.922;2024-01-30T02:38:22;21.75;;;9.25;;
76667;SDS011;65585;51.166;16.922;2024-01-30T02:40:49;18.70;;;9.38;;
76667;SDS011;65585;51.166;16.922;2024-01-30T02:43:15;22.20;;;11.38;;
76667;SDS011;65585;51.166;16.922;2024-01-30T02:45:41;20.02;;;10.43;;
76667;SDS011;65585;51.166;16.922;2024-01-30T02:48:08;19.42;;;10.27;;
76667;SDS011;65585;51.166;16.922;2024-01-30T02:50:33;19.90;;;9.57;;
76667;SDS011;65585;51.166;16.922;2024-01-30T02:53:00;20.30;;;9.45;;
76667;SDS011;65585;51.166;16.922;2024-01-30T02:55:25;19.10;;;9.75;;
76667;SDS011;65585;51.166;16.922;2024-01-30T02:57:52;18.42;;;9.07;;
76667;SDS011;65585;51.166;16.922;2024-01-30T03:00:18;20.90;;;10.93;;
76667;SDS011;65585;51.166;16.922;2024-01-30T03:02:45;32.10;;;11.77;;
76667;SDS011;65585;51.166;16.922;2024-01-30T03:05:11;27.95;;;12.20;;
76667;SDS011;65585;51.166;16.922;2024-01-30T03:07:37;23.90;;;12.15;;
76667;SDS011;65585;51.166;16.922;2024-01-30T03:10:06;16.40;;;10.23;;
76667;SDS011;65585;51.166;16.922;2024-01-30T03:12:33;19.80;;;10.82;;
76667;SDS011;65585;51.166;16.922;2024-01-30T03:14:58;19.83;;;11.00;;
76667;SDS011;65585;51.166;16.922;2024-01-30T03:17:25;21.52;;;10.52;;
76667;SDS011;65585;51.166;16.922;2024-01-30T03:19:50;21.00;;;11.75;;
76667;SDS011;65585;51.166;16.922;2024-01-30T03:22:17;23.23;;;10.68;;
76667;SDS011;65585;51.166;16.922;2024-01-30T03:24:43;26.05;;;10.88;;
76667;SDS011;65585;51.166;16.922;2024-01-30T03:27:09;21.35;;;11.00;;
76667;SDS011;65585;51.166;16.922;2024-01-30T03:29:35;20.10;;;10.32;;
76667;SDS011;65585;51.166;16.922;2024-01-30T03:32:01;24.25;;;11.02;;
76667;SDS011;65585;51.166;16.922;2024-01-30T03:34:29;26.35;;;10.27;;
76667;SDS011;65585;51.166;16.922;2024-01-30T03:36:55;29.60;;;12.75;;
76667;SDS011;65585;51.166;16.922;2024-01-30T03:39:21;18.67;;;10.60;;
76667;SDS011;65585;51.166;16.922;2024-01-30T03:41:47;20.67;;;10.05;;
76667;SDS011;65585;51.166;16.922;2024-01-30T03:44:13;24.33;;;10.63;;
76667;SDS011;65585;51.166;16.922;2024-01-30T03:46:39;17.00;;;10.18;;
76667;SDS011;65585;51.166;16.922;2024-01-30T03:49:05;23.90;;;11.55;;
76667;SDS011;65585;51.166;16.922;2024-01-30T03:51:31;19.23;;;9.00;;
76667;SDS011;65585;51.166;16.922;2024-01-30T03:53:57;21.45;;;10.75;;
76667;SDS011;65585;51.166;16.922;2024-01-30T03:56:23;18.80;;;11.20;;
76667;SDS011;65585;51.166;16.922;2024-01-30T03:58:51;22.05;;;11.00;;
76667;SDS011;65585;51.166;16.922;2024-01-30T04:01:17;23.63;;;11.15;;
76667;SDS011;65585;51.166;16.922;2024-01-30T04:03:42;17.88;;;10.45;;
76667;SDS011;65585;51.166;16.922;2024-01-30T04:06:10;26.33;;;11.65;;
76667;SDS011;65585;51.166;16.922;2024-01-30T04:08:36;22.67;;;10.55;;
76667;SDS011;65585;51.166;16.922;2024-01-30T04:11:03;18.27;;;9.90;;
76667;SDS011;65585;51.166;16.922;2024-01-30T04:13:31;21.05;;;10.95;;
76667;SDS011;65585;51.166;16.922;2024-01-30T04:15:59;19.92;;;10.85;;
76667;SDS011;65585;51.166;16.922;2024-01-30T04:18:27;24.20;;;10.25;;
76667;SDS011;65585;51.166;16.922;2024-01-30T04:20:53;20.88;;;9.98;;
76667;SDS011;65585;51.166;16.922;2024-01-30T04:23:19;24.00;;;12.13;;
76667;SDS011;65585;51.166;16.922;2024-01-30T04:25:45;21.40;;;10.52;;
76667;SDS011;65585;51.166;16.922;2024-01-30T04:28:10;23.95;;;9.68;;
76667;SDS011;65585;51.166;16.922;2024-01-30T04:30:39;20.75;;;10.52;;
76667;SDS011;65585;51.166;16.922;2024-01-30T04:33:05;16.55;;;9.77;;
76667;SDS011;65585;51.166;16.922;2024-01-30T04:35:31;23.02;;;11.80;;
76667;SDS011;65585;51.166;16.922;2024-01-30T04:37:57;16.60;;;9.40;;
76667;SDS011;65585;51.166;16.922;2024-01-30T04:40:23;22.83;;;9.50;;
76667;SDS011;65585;51.166;16.922;2024-01-30T04:42:49;17.95;;;10.30;;
76667;SDS011;65585;51.166;16.922;2024-01-30T04:45:15;16.95;;;10.63;;
76667;SDS011;65585;51.166;16.922;2024-01-30T04:47:42;20.67;;;10.75;;
76667;SDS011;65585;51.166;16.922;2024-01-30T04:50:08;17.60;;;8.98;;
76667;SDS011;65585;51.166;16.922;2024-01-30T04:52:34;16.27;;;10.20;;
76667;SDS011;65585;51.166;16.922;2024-01-30T04:55:01;26.67;;;12.18;;
76667;SDS011;65585;51.166;16.922;2024-01-30T04:57:27;14.48;;;8.82;;
76667;SDS011;65585;51.166;16.922;2024-01-30T04:59:53;20.33;;;8.93;;
76667;SDS011;65585;51.166;16.922;2024-01-30T05:02:19;27.85;;;10.88;;
76667;SDS011;65585;51.166;16.922;2024-01-30T05:04:45;17.52;;;9.88;;
76667;SDS011;65585;51.166;16.922;2024-01-30T05:07:11;20.15;;;10.35;;
76667;SDS011;65585;51.166;16.922;2024-01-30T05:09:37;20.35;;;10.13;;
76667;SDS011;65585;51.166;16.922;2024-01-30T05:12:03;21.75;;;10.82;;
76667;SDS011;65585;51.166;16.922;2024-01-30T05:14:29;21.67;;;10.02;;
76667;SDS011;65585;51.166;16.922;2024-01-30T05:16:55;22.60;;;9.45;;
76667;SDS011;65585;51.166;16.922;2024-01-30T05:19:21;16.45;;;9.50;;
76667;SDS011;65585;51.166;16.922;2024-01-30T05:21:49;22.95;;;10.15;;
76667;SDS011;65585;51.166;16.922;2024-01-30T05:24:15;19.20;;;10.25;;
76667;SDS011;65585;51.166;16.922;2024-01-30T05:26:41;17.23;;;10.18;;
76667;SDS011;65585;51.166;16.922;2024-01-30T05:29:07;21.38;;;10.48;;
76667;SDS011;65585;51.166;16.922;2024-01-30T05:31:36;22.35;;;10.15;;
76667;SDS011;65585;51.166;16.922;2024-01-30T05:34:02;17.30;;;10.48;;
76667;SDS011;65585;51.166;16.922;2024-01-30T05:36:28;21.17;;;10.35;;
76667;SDS011;65585;51.166;16.922;2024-01-30T05:38:55;20.52;;;10.73;;
76667;SDS011;65585;51.166;16.922;2024-01-30T05:41:21;21.25;;;10.20;;
76667;SDS011;65585;51.166;16.922;2024-01-30T05:43:47;16.85;;;9.45;;
76667;SDS011;65585;51.166;16.922;2024-01-30T05:46:13;21.60;;;9.48;;
76667;SDS011;65585;51.166;16.922;2024-01-30T05:48:39;20.25;;;9.93;;
76667;SDS011;65585;51.166;16.922;2024-01-30T05:51:06;18.30;;;9.82;;
76667;SDS011;65585;51.166;16.922;2024-01-30T05:53:33;16.83;;;9.35;;
76667;SDS011;65585;51.166;16.922;2024-01-30T05:56:01;20.25;;;10.88;;
76667;SDS011;65585;51.166;16.922;2024-01-30T05:58:27;21.10;;;10.35;;
76667;SDS011;65585;51.166;16.922;2024-01-30T06:00:53;17.70;;;8.75;;
76667;SDS011;65585;51.166;16.922;2024-01-30T06:03:19;17.50;;;10.32;;
76667;SDS011;65585;51.166;16.922;2024-01-30T06:05:45;18.02;;;11.73;;
76667;SDS011;65585;51.166;16.922;2024-01-30T06:08:11;19.67;;;10.50;;
76667;SDS011;65585;51.166;16.922;2024-01-30T06:10:37;23.08;;;12.27;;
76667;SDS011;65585;51.166;16.922;2024-01-30T06:13:03;17.85;;;10.85;;
76667;SDS011;65585;51.166;16.922;2024-01-30T06:15:29;18.70;;;10.68;;
76667;SDS011;65585;51.166;16.922;2024-01-30T06:17:55;26.40;;;12.95;;
76667;SDS011;65585;51.166;16.922;2024-01-30T06:20:21;24.15;;;11.85;;
76667;SDS011;65585;51.166;16.922;2024-01-30T06:22:47;26.30;;;12.15;;
76667;SDS011;65585;51.166;16.922;2024-01-30T06:25:13;16.73;;;10.88;;
76667;SDS011;65585;51.166;16.922;2024-01-30T06:27:39;18.10;;;10.07;;
76667;SDS011;65585;51.166;16.922;2024-01-30T06:30:05;24.38;;;10.80;;
76667;SDS011;65585;51.166;16.922;2024-01-30T06:32:32;14.90;;;9.73;;
76667;SDS011;65585;51.166;16.922;2024-01-30T06:35:00;24.85;;;11.73;;
76667;SDS011;65585;51.166;16.922;2024-01-30T06:37:26;18.73;;;10.85;;
76667;SDS011;65585;51.166;16.922;2024-01-30T06:39:52;20.90;;;9.70;;
76667;SDS011;65585;51.166;16.922;2024-01-30T06:42:18;25.48;;;10.77;;
76667;SDS011;65585;51.166;16.922;2024-01-30T06:44:44;25.10;;;11.13;;
76667;SDS011;65585;51.166;16.922;2024-01-30T06:47:11;19.83;;;9.23;;
76667;SDS011;65585;51.166;16.922;2024-01-30T06:49:40;15.75;;;8.95;;
76667;SDS011;65585;51.166;16.922;2024-01-30T06:52:07;16.75;;;8.85;;
76667;SDS011;65585;51.166;16.922;2024-01-30T06:54:33;15.93;;;9.23;;
76667;SDS011;65585;51.166;16.922;2024-01-30T06:57:00;17.00;;;9.43;;
76667;SDS011;65585;51.166;16.922;2024-01-30T06:59:26;25.27;;;10.80;;
76667;SDS011;65585;51.166;16.922;2024-01-30T07:01:52;17.75;;;9.57;;
76667;SDS011;65585;51.166;16.922;2024-01-30T07:04:18;20.48;;;9.75;;
76667;SDS011;65585;51.166;16.922;2024-01-30T07:06:44;31.60;;;10.18;;
76667;SDS011;65585;51.166;16.922;2024-01-30T07:09:10;18.58;;;10.05;;
76667;SDS011;65585;51.166;16.922;2024-01-30T07:11:36;22.45;;;10.55;;
76667;SDS011;65585;51.166;16.922;2024-01-30T07:14:02;21.23;;;10.05;;
76667;SDS011;65585;51.166;16.922;2024-01-30T07:16:31;18.00;;;8.75;;
76667;SDS011;65585;51.166;16.922;2024-01-30T07:18:57;25.15;;;9.90;;
76667;SDS011;65585;51.166;16.922;2024-01-30T07:21:23;15.77;;;8.93;;
76667;SDS011;65585;51.166;16.922;2024-01-30T07:23:56;17.50;;;9.40;;
76667;SDS011;65585;51.166;16.922;2024-01-30T07:26:23;16.38;;;9.38;;
76667;SDS011;65585;51.166;16.922;2024-01-30T07:28:49;14.73;;;9.35;;
76667;SDS011;65585;51.166;16.922;2024-01-30T07:31:16;21.10;;;9.32;;
76667;SDS011;65585;51.166;16.922;2024-01-30T07:33:42;19.83;;;10.10;;
76667;SDS011;65585;51.166;16.922;2024-01-30T07:36:09;17.65;;;8.98;;
76667;SDS011;65585;51.166;16.922;2024-01-30T07:38:35;19.80;;;10.00;;
76667;SDS011;65585;51.166;16.922;2024-01-30T07:41:01;23.17;;;9.93;;
76667;SDS011;65585;51.166;16.922;2024-01-30T07:43:27;22.63;;;10.20;;
76667;SDS011;65585;51.166;16.922;2024-01-30T07:45:53;18.13;;;10.25;;
76667;SDS011;65585;51.166;16.922;2024-01-30T07:48:19;22.85;;;10.35;;
76667;SDS011;65585;51.166;16.922;2024-01-30T07:50:45;15.40;;;9.63;;
76667;SDS011;65585;51.166;16.922;2024-01-30T07:53:11;27.92;;;12.48;;
76667;SDS011;65585;51.166;16.922;2024-01-30T07:55:37;19.33;;;10.68;;
76667;SDS011;65585;51.166;16.922;2024-01-30T07:58:04;24.60;;;11.18;;
76667;SDS011;65585;51.166;16.922;2024-01-30T08:00:30;21.83;;;10.75;;
76667;SDS011;65585;51.166;16.922;2024-01-30T08:02:56;21.10;;;10.85;;
76667;SDS011;65585;51.166;16.922;2024-01-30T08:05:22;22.35;;;11.73;;
76667;SDS011;65585;51.166;16.922;2024-01-30T08:07:49;26.33;;;11.68;;
76667;SDS011;65585;51.166;16.922;2024-01-30T08:10:15;27.67;;;12.48;;
76667;SDS011;65585;51.166;16.922;2024-01-30T08:12:41;20.08;;;10.90;;
76667;SDS011;65585;51.166;16.922;2024-01-30T08:15:07;24.50;;;11.55;;
76667;SDS011;65585;51.166;16.922;2024-01-30T08:17:34;21.98;;;12.75;;
76667;SDS011;65585;51.166;16.922;2024-01-30T08:20:00;22.80;;;12.25;;
76667;SDS011;65585;51.166;16.922;2024-01-30T08:22:26;25.60;;;12.70;;
76667;SDS011;65585;51.166;16.922;2024-01-30T08:24:52;22.75;;;12.05;;
76667;SDS011;65585;51.166;16.922;2024-01-30T08:27:17;22.75;;;13.65;;
76667;SDS011;65585;51.166;16.922;2024-01-30T08:29:43;28.15;;;13.82;;
76667;SDS011;65585;51.166;16.922;2024-01-30T08:32:09;23.80;;;14.20;;
76667;SDS011;65585;51.166;16.922;2024-01-30T08:34:35;27.52;;;13.52;;
76667;SDS011;65585;51.166;16.922;2024-01-30T08:37:01;27.60;;;14.48;;
76667;SDS011;65585;51.166;16.922;2024-01-30T08:39:28;29.15;;;15.27;;
76667;SDS011;65585;51.166;16.922;2024-01-30T08:41:54;25.58;;;12.98;;
76667;SDS011;65585;51.166;16.922;2024-01-30T08:44:20;26.52;;;15.43;;
76667;SDS011;65585;51.166;16.922;2024-01-30T08:46:46;28.15;;;14.68;;
76667;SDS011;65585;51.166;16.922;2024-01-30T08:49:13;28.27;;;14.23;;
76667;SDS011;65585;51.166;16.922;2024-01-30T08:51:39;27.42;;;14.35;;
76667;SDS011;65585;51.166;16.922;2024-01-30T08:54:05;33.85;;;16.48;;
76667;SDS011;65585;51.166;16.922;2024-01-30T08:56:31;26.70;;;15.68;;
76667;SDS011;65585;51.166;16.922;2024-01-30T08:58:57;29.88;;;15.10;;
76667;SDS011;65585;51.166;16.922;2024-01-30T09:01:23;26.48;;;14.68;;
76667;SDS011;65585;51.166;16.922;2024-01-30T09:03:50;26.08;;;13.98;;
76667;SDS011;65585;51.166;16.922;2024-01-30T09:06:16;28.25;;;15.05;;
76667;SDS011;65585;51.166;16.922;2024-01-30T09:08:43;21.15;;;13.48;;
76667;SDS011;65585;51.166;16.922;2024-01-30T09:11:12;22.83;;;12.02;;
76667;SDS011;65585;51.166;16.922;2024-01-30T09:13:39;20.02;;;12.13;;
76667;SDS011;65585;51.166;16.922;2024-01-30T09:16:05;19.67;;;12.07;;
76667;SDS011;65585;51.166;16.922;2024-01-30T09:18:32;24.25;;;12.25;;
76667;SDS011;65585;51.166;16.922;2024-01-30T09:20:58;17.60;;;10.15;;
76667;SDS011;65585;51.166;16.922;2024-01-30T09:23:24;23.50;;;9.55;;
76667;SDS011;65585;51.166;16.922;2024-01-30T09:25:50;18.58;;;9.02;;
76667;SDS011;65585;51.166;16.922;2024-01-30T09:28:19;18.77;;;8.82;;
76667;SDS011;65585;51.166;16.922;2024-01-30T09:30:45;17.00;;;7.90;;
76667;SDS011;65585;51.166;16.922;2024-01-30T09:33:11;15.00;;;8.48;;
76667;SDS011;65585;51.166;16.922;2024-01-30T09:35:37;14.93;;;7.63;;
76667;SDS011;65585;51.166;16.922;2024-01-30T09:38:03;20.15;;;7.63;;
76667;SDS011;65585;51.166;16.922;2024-01-30T09:40:29;13.07;;;7.43;;
76667;SDS011;65585;51.166;16.922;2024-01-30T09:42:55;18.63;;;6.93;;
76667;SDS011;65585;51.166;16.922;2024-01-30T09:45:25;13.80;;;6.90;;
76667;SDS011;65585;51.166;16.922;2024-01-30T09:47:52;14.38;;;6.70;;
76667;SDS011;65585;51.166;16.922;2024-01-30T09:50:18;11.70;;;6.43;;
76667;SDS011;65585;51.166;16.922;2024-01-30T09:52:45;14.93;;;7.18;;
76667;SDS011;65585;51.166;16.922;2024-01-30T09:55:12;11.98;;;7.28;;
76667;SDS011;65585;51.166;16.922;2024-01-30T09:57:38;13.80;;;6.35;;
76667;SDS011;65585;51.166;16.922;2024-01-30T10:00:05;12.70;;;6.22;;
76667;SDS011;65585;51.166;16.922;2024-01-30T10:02:35;14.38;;;6.30;;
76667;SDS011;65585;51.166;16.922;2024-01-30T10:05:01;13.90;;;5.95;;
76667;SDS011;65585;51.166;16.922;2024-01-30T10:07:28;13.57;;;6.10;;
76667;SDS011;65585;51.166;16.922;2024-01-30T10:09:55;11.00;;;5.07;;
76667;SDS011;65585;51.166;16.922;2024-01-30T10:12:22;9.68;;;5.35;;
76667;SDS011;65585;51.166;16.922;2024-01-30T10:14:48;12.02;;;5.40;;
76667;SDS011;65585;51.166;16.922;2024-01-30T10:17:15;11.80;;;4.97;;
76667;SDS011;65585;51.166;16.922;2024-01-30T10:19:41;11.20;;;5.38;;
76667;SDS011;65585;51.166;16.922;2024-01-30T10:22:07;9.32;;;5.05;;
76667;SDS011;65585;51.166;16.922;2024-01-30T10:24:34;8.75;;;5.03;;
76667;SDS011;65585;51.166;16.922;2024-01-30T10:27:00;10.00;;;4.80;;
76667;SDS011;65585;51.166;16.922;2024-01-30T10:29:27;6.55;;;4.35;;
76667;SDS011;65585;51.166;16.922;2024-01-30T10:32:03;8.27;;;4.53;;
76667;SDS011;65585;51.166;16.922;2024-01-30T10:34:30;8.98;;;5.38;;
76667;SDS011;65585;51.166;16.922;2024-01-30T10:37:18;8.32;;;4.53;;
76667;SDS011;65585;51.166;16.922;2024-01-30T10:42:14;8.43;;;5.65;;
76667;SDS011;65585;51.166;16.922;2024-01-30T10:44:58;10.20;;;5.10;;
76667;SDS011;65585;51.166;16.922;2024-01-30T10:47:27;8.85;;;4.15;;
76667;SDS011;65585;51.166;16.922;2024-01-30T10:49:54;7.00;;;4.43;;
76667;SDS011;65585;51.166;16.922;2024-01-30T10:52:22;8.02;;;4.57;;
76667;SDS011;65585;51.166;16.922;2024-01-30T10:54:53;7.85;;;3.90;;
76667;SDS011;65585;51.166;16.922;2024-01-30T10:57:21;8.05;;;4.60;;
76667;SDS011;65585;51.166;16.922;2024-01-30T10:59:48;8.82;;;4.10;;
76667;SDS011;65585;51.166;16.922;2024-01-30T11:02:15;7.85;;;4.05;;
76667;SDS011;65585;51.166;16.922;2024-01-30T11:04:41;6.93;;;3.80;;
76667;SDS011;65585;51.166;16.922;2024-01-30T11:07:17;9.60;;;4.32;;
76667;SDS011;65585;51.166;16.922;2024-01-30T11:09:53;7.45;;;4.35;;
76667;SDS011;65585;51.166;16.922;2024-01-30T11:12:28;8.57;;;4.15;;
76667;SDS011;65585;51.166;16.922;2024-01-30T11:20:17;5.97;;;3.95;;
76667;SDS011;65585;51.166;16.922;2024-01-30T11:22:50;7.70;;;3.83;;
76667;SDS011;65585;51.166;16.922;2024-01-30T11:25:20;5.32;;;3.50;;
76667;SDS011;65585;51.166;16.922;2024-01-30T11:27:46;8.23;;;4.55;;
76667;SDS011;65585;51.166;16.922;2024-01-30T11:30:26;9.48;;;4.68;;
76667;SDS011;65585;51.166;16.922;2024-01-30T11:35:35;7.95;;;4.18;;
76667;SDS011;65585;51.166;16.922;2024-01-30T11:38:03;8.38;;;4.13;;
76667;SDS011;65585;51.166;16.922;2024-01-30T11:40:29;6.55;;;4.05;;
76667;SDS011;65585;51.166;16.922;2024-01-30T11:42:59;7.68;;;4.47;;
76667;SDS011;65585;51.166;16.922;2024-01-30T11:45:29;6.65;;;3.35;;
76667;SDS011;65585;51.166;16.922;2024-01-30T11:47:55;6.05;;;3.88;;
76667;SDS011;65585;51.166;16.922;2024-01-30T11:50:21;10.00;;;3.80;;
76667;SDS011;65585;51.166;16.922;2024-01-30T11:52:48;7.78;;;4.22;;
76667;SDS011;65585;51.166;16.922;2024-01-30T11:55:14;7.97;;;4.65;;
76667;SDS011;65585;51.166;16.922;2024-01-30T11:57:41;7.50;;;3.83;;
76667;SDS011;65585;51.166;16.922;2024-01-30T12:00:13;7.63;;;4.10;;
76667;SDS011;65585;51.166;16.922;2024-01-30T12:02:41;8.30;;;4.63;;
76667;SDS011;65585;51.166;16.922;2024-01-30T12:05:07;7.13;;;3.97;;
76667;SDS011;65585;51.166;16.922;2024-01-30T12:07:35;7.45;;;4.10;;
76667;SDS011;65585;51.166;16.922;2024-01-30T12:10:01;6.90;;;3.90;;
76667;SDS011;65585;51.166;16.922;2024-01-30T12:12:28;7.60;;;4.47;;
76667;SDS011;65585;51.166;16.922;2024-01-30T12:14:55;8.23;;;4.40;;
76667;SDS011;65585;51.166;16.922;2024-01-30T12:17:31;8.88;;;4.30;;
76667;SDS011;65585;51.166;16.922;2024-01-30T12:20:05;6.00;;;3.90;;
76667;SDS011;65585;51.166;16.922;2024-01-30T12:25:07;10.98;;;4.22;;
76667;SDS011;65585;51.166;16.922;2024-01-30T12:27:34;7.90;;;4.45;;
76667;SDS011;65585;51.166;16.922;2024-01-30T12:30:01;7.97;;;4.20;;
76667;SDS011;65585;51.166;16.922;2024-01-30T12:32:27;7.90;;;4.28;;
76667;SDS011;65585;51.166;16.922;2024-01-30T12:34:56;11.85;;;4.85;;
76667;SDS011;65585;51.166;16.922;2024-01-30T12:37:22;8.73;;;4.18;;
76667;SDS011;65585;51.166;16.922;2024-01-30T12:39:51;8.55;;;4.10;;
76667;SDS011;65585;51.166;16.922;2024-01-30T12:42:19;6.45;;;4.00;;
76667;SDS011;65585;51.166;16.922;2024-01-30T12:44:46;8.88;;;3.90;;
76667;SDS011;65585;51.166;16.922;2024-01-30T12:47:13;7.45;;;4.18;;
76667;SDS011;65585;51.166;16.922;2024-01-30T12:52:10;7.47;;;4.10;;
76667;SDS011;65585;51.166;16.922;2024-01-30T12:54:37;6.40;;;4.93;;
76667;SDS011;65585;51.166;16.922;2024-01-30T12:57:04;12.07;;;5.72;;
76667;SDS011;65585;51.166;16.922;2024-01-30T12:59:31;9.80;;;4.70;;
76667;SDS011;65585;51.166;16.922;2024-01-30T13:01:58;9.02;;;5.00;;
76667;SDS011;65585;51.166;16.922;2024-01-30T13:04:25;10.45;;;5.38;;
76667;SDS011;65585;51.166;16.922;2024-01-30T13:06:52;7.13;;;4.55;;
76667;SDS011;65585;51.166;16.922;2024-01-30T13:09:18;7.85;;;4.40;;
76667;SDS011;65585;51.166;16.922;2024-01-30T13:11:44;8.10;;;4.70;;
76667;SDS011;65585;51.166;16.922;2024-01-30T13:14:09;6.50;;;4.20;;
76667;SDS011;65585;51.166;16.922;2024-01-30T13:16:36;7.93;;;4.32;;
76667;SDS011;65585;51.166;16.922;2024-01-30T13:19:02;8.02;;;4.05;;
76667;SDS011;65585;51.166;16.922;2024-01-30T13:21:28;9.18;;;4.40;;
76667;SDS011;65585;51.166;16.922;2024-01-30T13:23:54;5.65;;;3.42;;
76667;SDS011;65585;51.166;16.922;2024-01-30T13:26:20;9.13;;;4.95;;
76667;SDS011;65585;51.166;16.922;2024-01-30T13:28:46;10.45;;;5.72;;
76667;SDS011;65585;51.166;16.922;2024-01-30T13:31:13;6.53;;;4.22;;
76667;SDS011;65585;51.166;16.922;2024-01-30T13:33:40;10.07;;;4.85;;
76667;SDS011;65585;51.166;16.922;2024-01-30T13:36:10;9.00;;;5.25;;
76667;SDS011;65585;51.166;16.922;2024-01-30T13:38:36;11.80;;;5.50;;
76667;SDS011;65585;51.166;16.922;2024-01-30T13:41:03;12.15;;;5.88;;
76667;SDS011;65585;51.166;16.922;2024-01-30T13:43:29;9.57;;;4.95;;
76667;SDS011;65585;51.166;16.922;2024-01-30T13:45:55;9.65;;;5.85;;
76667;SDS011;65585;51.166;16.922;2024-01-30T13:48:21;9.40;;;5.05;;
76667;SDS011;65585;51.166;16.922;2024-01-30T13:50:47;8.75;;;5.75;;
76667;SDS011;65585;51.166;16.922;2024-01-30T13:53:13;7.43;;;5.07;;
76667;SDS011;65585;51.166;16.922;2024-01-30T13:55:39;8.68;;;5.57;;
76667;SDS011;65585;51.166;16.922;2024-01-30T13:58:05;11.73;;;4.90;;
76667;SDS011;65585;51.166;16.922;2024-01-30T14:00:33;12.70;;;5.22;;
76667;SDS011;65585;51.166;16.922;2024-01-30T14:02:59;10.93;;;5.18;;
76667;SDS011;65585;51.166;16.922;2024-01-30T14:05:26;11.43;;;6.32;;
76667;SDS011;65585;51.166;16.922;2024-01-30T14:07:55;9.43;;;5.15;;
76667;SDS011;65585;51.166;16.922;2024-01-30T14:10:23;9.70;;;5.45;;
76667;SDS011;65585;51.166;16.922;2024-01-30T14:12:49;9.35;;;5.32;;
76667;SDS011;65585;51.166;16.922;2024-01-30T14:15:15;11.70;;;5.85;;
76667;SDS011;65585;51.166;16.922;2024-01-30T14:17:44;11.48;;;5.63;;
76667;SDS011;65585;51.166;16.922;2024-01-30T14:20:11;10.70;;;5.80;;
76667;SDS011;65585;51.166;16.922;2024-01-30T14:22:37;11.18;;;6.03;;
76667;SDS011;65585;51.166;16.922;2024-01-30T14:25:03;13.15;;;5.25;;
76667;SDS011;65585;51.166;16.922;2024-01-30T14:27:30;11.73;;;6.07;;
76667;SDS011;65585;51.166;16.922;2024-01-30T14:29:57;11.90;;;5.88;;
76667;SDS011;65585;51.166;16.922;2024-01-30T14:32:23;17.85;;;7.93;;